Time;durP1;ratioP1;P1;durP2;ratioP2;P2;SDS_P1;SDS_P2;PMS_P1;PMS_P2;Temp;Humidity;BMP_temperature;BMP_pressure;BME280_temperature;BME280_humidity;BME280_pressure;Samples;Min_cycle;Max_cycle;Signal;HPM_P1;HPM_P2
2021/10/27 00:01:22;;;;;;;11.77;4.53;;;13.90;99.90;;;12.07;100.00;101210.41;5044716;28;20033;-87
2021/10/27 00:03:50;;;;;;;13.25;4.75;;;13.90;99.90;;;12.06;100.00;101203.22;5047741;28;20548;-87
2021/10/27 00:06:17;;;;;;;11.65;5.05;;;13.90;99.90;;;12.02;100.00;101210.06;5048220;28;20133;-87
2021/10/27 00:08:45;;;;;;;10.48;5.10;;;13.90;99.90;;;12.04;100.00;101208.00;5048150;28;20047;-87
2021/10/27 00:11:13;;;;;;;8.90;4.65;;;13.90;99.90;;;12.06;100.00;101205.09;5046812;28;20073;-87
2021/10/27 00:13:41;;;;;;;11.10;4.80;;;14.00;99.90;;;12.07;100.00;101206.78;5048289;28;20596;-86
2021/10/27 00:16:09;;;;;;;8.63;4.03;;;13.90;99.90;;;12.05;100.00;101201.53;5063578;28;20053;-86
2021/10/27 00:18:36;;;;;;;11.25;4.45;;;14.00;99.90;;;12.07;100.00;101194.03;5038317;28;20052;-87
2021/10/27 00:21:03;;;;;;;7.53;4.47;;;14.00;99.90;;;12.12;100.00;101188.03;5028322;28;20045;-87
2021/10/27 00:23:31;;;;;;;11.77;5.03;;;14.00;99.90;;;12.12;100.00;101199.78;5028550;28;20049;-87
2021/10/27 00:27:09;;;;;;;11.02;5.05;;;14.00;99.90;;;12.13;100.00;101198.75;5028397;28;20041;-86
2021/10/27 00:29:39;;;;;;;11.77;5.10;;;14.00;99.90;;;12.13;100.00;101198.75;5026724;28;20060;-86
2021/10/27 00:32:08;;;;;;;7.85;4.70;;;14.00;99.90;;;12.12;100.00;101198.94;5028422;28;20045;-87
2021/10/27 00:34:36;;;;;;;9.40;4.85;;;14.00;99.90;;;12.14;100.00;101196.88;5031769;28;20060;-87
2021/10/27 00:37:04;;;;;;;10.98;4.75;;;14.00;99.90;;;12.16;100.00;101199.44;5027994;28;20111;-87
2021/10/27 00:39:32;;;;;;;8.10;4.82;;;14.00;99.90;;;12.14;100.00;101196.88;5026437;28;20069;-87
2021/10/27 00:41:59;;;;;;;9.80;4.70;;;14.00;99.90;;;12.14;100.00;101199.59;5027642;28;20099;-87
2021/10/27 00:44:27;;;;;;;7.93;4.65;;;14.00;99.90;;;12.15;100.00;101203.19;5027847;28;20548;-87
2021/10/27 00:47:05;;;;;;;9.57;4.25;;;14.00;99.90;;;12.13;100.00;101200.66;5026152;28;20537;-87
2021/10/27 00:49:36;;;;;;;11.90;5.22;;;14.00;99.90;;;12.08;100.00;101206.63;5027633;28;20096;-87
2021/10/27 00:52:07;;;;;;;9.15;4.97;;;14.00;99.90;;;12.09;100.00;101208.34;5026743;28;20156;-86
2021/10/27 00:54:35;;;;;;;11.85;5.32;;;14.00;99.90;;;12.10;100.00;101206.44;5028130;28;20042;-87
2021/10/27 00:57:03;;;;;;;10.45;4.90;;;14.00;99.90;;;12.08;100.00;101201.16;5026315;28;20521;-87
2021/10/27 00:59:31;;;;;;;9.38;5.63;;;14.00;99.90;;;12.10;100.00;101209.19;5027607;28;20041;-86
2021/10/27 01:01:59;;;;;;;11.13;5.05;;;14.00;99.90;;;12.12;100.00;101202.50;5028010;28;20119;-86
2021/10/27 01:04:28;;;;;;;10.73;5.43;;;14.00;99.90;;;12.13;100.00;101203.38;5029785;28;20045;-87
2021/10/27 01:06:55;;;;;;;9.27;5.25;;;14.00;99.90;;;12.13;100.00;101211.56;5028120;28;20058;-87
2021/10/27 01:09:23;;;;;;;12.07;5.35;;;14.00;99.90;;;12.11;100.00;101217.19;5027863;28;20042;-87
2021/10/27 01:11:50;;;;;;;11.93;5.40;;;14.00;99.90;;;12.12;100.00;101215.31;5027897;28;20128;-87
2021/10/27 01:14:18;;;;;;;11.77;5.03;;;14.00;99.90;;;12.12;100.00;101210.69;5028190;28;20505;-87
2021/10/27 01:16:47;;;;;;;13.63;5.70;;;14.00;99.90;;;12.11;100.00;101203.56;5030946;28;20573;-87
2021/10/27 01:19:15;;;;;;;9.45;5.18;;;14.10;99.90;;;12.12;100.00;101207.13;5030115;28;20456;-87
2021/10/27 01:21:44;;;;;;;10.07;4.70;;;14.00;99.90;;;12.16;100.00;101208.47;5010925;28;20117;-87
2021/10/27 01:24:12;;;;;;;10.18;4.95;;;14.00;99.90;;;12.18;100.00;101206.41;5011023;28;20562;-87
2021/10/27 01:26:39;;;;;;;11.07;5.03;;;14.10;99.90;;;12.20;100.00;101195.31;5011311;28;20045;-87
2021/10/27 01:29:06;;;;;;;8.85;4.60;;;14.10;99.90;;;12.22;100.00;101199.59;5009745;28;20053;-86
2021/10/27 01:31:34;;;;;;;8.70;4.47;;;14.10;99.90;;;12.23;100.00;101200.44;5010082;28;20609;-87
2021/10/27 01:34:01;;;;;;;11.07;5.47;;;14.10;99.90;;;12.24;100.00;101196.66;5013928;28;20771;-86
2021/10/27 01:36:29;;;;;;;12.15;4.97;;;14.10;99.90;;;12.22;100.00;101193.25;5018887;28;20076;-87
2021/10/27 01:38:58;;;;;;;10.50;5.03;;;14.10;99.90;;;12.25;100.00;101192.91;5030645;28;20065;-87
2021/10/27 01:41:27;;;;;;;12.23;4.95;;;14.10;99.90;;;12.23;100.00;101190.34;5029572;28;20147;-86
2021/10/27 01:43:57;;;;;;;11.52;5.32;;;14.10;99.90;;;12.25;100.00;101187.44;5029505;28;20194;-87
2021/10/27 01:46:29;;;;;;;10.75;4.72;;;14.10;99.90;;;12.23;100.00;101179.44;5030793;28;20060;-86
2021/10/27 01:48:57;;;;;;;13.88;5.25;;;14.10;99.90;;;12.23;100.00;101184.88;5030304;28;20583;-87
2021/10/27 01:51:26;;;;;;;10.85;5.35;;;14.10;99.90;;;12.23;100.00;101182.16;5029878;28;20531;-87
2021/10/27 01:53:54;;;;;;;13.32;5.53;;;14.20;99.90;;;12.23;100.00;101184.06;5045845;28;20533;-87
2021/10/27 01:56:24;;;;;;;9.10;4.80;;;14.20;99.90;;;12.24;100.00;101186.59;5050402;28;20111;-87
2021/10/27 01:58:54;;;;;;;11.40;4.75;;;14.10;99.90;;;12.26;100.00;101183.69;5050596;28;20044;-86
2021/10/27 02:01:22;;;;;;;11.13;5.00;;;14.10;99.90;;;12.22;100.00;101185.06;5049011;28;20049;-87
2021/10/27 02:03:49;;;;;;;10.75;4.40;;;14.10;99.90;;;12.25;100.00;101173.81;5050363;28;20055;-87
2021/10/27 02:06:17;;;;;;;8.10;4.32;;;14.10;99.90;;;12.28;100.00;101184.34;5050245;28;20564;-87
2021/10/27 02:08:45;;;;;;;13.30;4.70;;;14.10;99.90;;;12.30;100.00;101185.03;5049995;28;20840;-87
2021/10/27 02:11:12;;;;;;;11.50;4.50;;;14.10;99.90;;;12.28;100.00;101184.34;5041370;28;20114;-87
2021/10/27 02:13:41;;;;;;;8.00;4.43;;;14.20;99.90;;;12.24;100.00;101181.16;5030645;28;20069;-86
2021/10/27 02:16:09;;;;;;;11.63;4.65;;;14.20;99.90;;;12.26;100.00;101180.94;5030374;28;20065;-86
2021/10/27 02:18:37;;;;;;;11.07;4.63;;;14.10;99.90;;;12.25;100.00;101185.56;5029906;28;20064;-87
2021/10/27 02:21:04;;;;;;;9.48;5.35;;;14.20;99.90;;;12.27;100.00;101180.78;5030311;28;20077;-87
2021/10/27 02:23:33;;;;;;;8.48;4.50;;;14.20;99.90;;;12.26;100.00;101180.94;5030094;28;20044;-86
2021/10/27 02:26:00;;;;;;;11.68;4.72;;;14.10;99.90;;;12.22;100.00;101182.34;5030286;28;20077;-87
2021/10/27 02:28:28;;;;;;;9.45;4.63;;;14.10;99.90;;;12.21;100.00;101172.47;5041888;28;20079;-86
2021/10/27 02:30:56;;;;;;;11.13;5.00;;;14.20;99.90;;;12.22;100.00;101179.59;5049944;28;20076;-87
2021/10/27 02:33:24;;;;;;;9.00;4.75;;;14.20;99.90;;;12.24;100.00;101180.28;5049701;28;20496;-87
2021/10/27 02:35:53;;;;;;;14.63;5.25;;;14.10;99.90;;;12.23;100.00;101184.06;5034782;28;20401;-87
2021/10/27 02:38:20;;;;;;;10.07;4.80;;;14.20;99.90;;;12.25;100.00;101173.81;5029538;28;20053;-86
2021/10/27 02:40:48;;;;;;;10.20;5.18;;;14.20;99.90;;;12.24;100.00;101175.69;5030021;28;20053;-87
2021/10/27 02:43:16;;;;;;;10.85;5.10;;;14.10;99.90;;;12.23;100.00;101176.72;5029877;28;20057;-87
2021/10/27 02:45:45;;;;;;;17.27;5.28;;;14.10;99.90;;;12.26;100.00;101175.47;5029838;28;20041;-87
2021/10/27 02:48:15;;;;;;;12.30;4.68;;;14.10;99.90;;;12.22;100.00;101172.28;5028065;28;20584;-87
2021/10/27 02:50:44;;;;;;;8.85;4.53;;;14.20;99.90;;;12.25;100.00;101182.00;5028413;28;20081;-87
2021/10/27 02:53:11;;;;;;;10.57;4.80;;;14.20;99.90;;;12.25;100.00;101180.09;5032634;28;20064;-87
2021/10/27 02:55:38;;;;;;;13.35;4.82;;;14.10;99.90;;;12.26;100.00;101183.69;5029646;28;20679;-87
2021/10/27 02:58:06;;;;;;;9.10;4.40;;;14.10;99.90;;;12.29;100.00;101180.59;5029206;28;20041;-87
2021/10/27 03:00:33;;;;;;;12.93;4.13;;;14.20;99.90;;;12.30;100.00;101185.03;5027950;28;20122;-87
2021/10/27 03:03:01;;;;;;;14.23;4.13;;;14.10;99.90;;;12.30;100.00;101182.31;5028016;28;20049;-87
2021/10/27 03:05:31;;;;;;;8.10;4.15;;;14.20;99.90;;;12.29;100.00;101186.06;5029471;28;20052;-87
2021/10/27 03:07:59;;;;;;;8.73;4.70;;;14.10;99.90;;;12.27;100.00;101190.84;5028983;28;20047;-87
2021/10/27 03:10:27;;;;;;;9.73;4.28;;;14.20;99.90;;;12.26;100.00;101179.09;5032500;28;20532;-87
2021/10/27 03:12:55;;;;;;;12.00;4.85;;;14.20;99.90;;;12.27;100.00;101185.38;5029160;28;20055;-87
2021/10/27 03:15:22;;;;;;;10.93;4.10;;;14.20;99.90;;;12.26;100.00;101183.69;5029357;28;20059;-88
2021/10/27 03:17:49;;;;;;;11.93;4.40;;;14.20;99.90;;;12.25;100.00;101185.56;5028843;28;20049;-87
2021/10/27 03:20:17;;;;;;;9.75;4.65;;;14.20;99.90;;;12.25;100.00;101187.44;5029418;28;20128;-87
2021/10/27 03:22:46;;;;;;;9.57;4.47;;;14.20;99.90;;;12.27;100.00;101196.31;5029056;28;20111;-87
2021/10/27 03:25:13;;;;;;;10.48;4.63;;;14.10;99.90;;;12.28;100.00;101181.63;5029746;28;20041;-87
2021/10/27 03:27:40;;;;;;;11.13;5.13;;;14.20;99.90;;;12.26;100.00;101189.13;5045431;28;20099;-88
2021/10/27 03:30:09;;;;;;;12.27;5.07;;;14.20;99.90;;;12.26;100.00;101183.69;5048843;28;20065;-87
2021/10/27 03:32:36;;;;;;;8.60;4.28;;;14.20;99.90;;;12.24;100.00;101192.06;5047393;28;20043;-87
2021/10/27 03:35:04;;;;;;;8.65;4.22;;;14.20;99.90;;;12.28;100.00;101187.06;5048605;28;20049;-86
2021/10/27 03:37:31;;;;;;;9.88;4.80;;;14.20;99.90;;;12.30;100.00;101185.03;5010159;28;20046;-87
2021/10/27 03:40:00;;;;;;;10.07;4.57;;;14.20;99.90;;;12.32;100.00;101188.44;5008980;28;20053;-87
2021/10/27 03:42:27;;;;;;;13.20;4.35;;;14.20;99.90;;;12.28;100.00;101182.47;5024212;28;20069;-87
2021/10/27 03:44:54;;;;;;;11.63;4.85;;;14.20;99.90;;;12.32;100.00;101183.81;5028783;28;20046;-88
2021/10/27 03:47:21;;;;;;;10.68;4.80;;;14.20;99.90;;;12.35;100.00;101189.94;5028481;28;20069;-87
2021/10/27 03:49:49;;;;;;;13.38;4.15;;;14.20;99.90;;;12.30;100.00;101182.31;5028556;28;20041;-88
2021/10/27 03:52:16;;;;;;;9.40;3.88;;;14.10;99.90;;;12.28;100.00;101182.47;5028915;28;20049;-87
2021/10/27 03:54:44;;;;;;;10.98;4.78;;;14.20;99.90;;;12.30;100.00;101185.03;5028835;28;20045;-86
2021/10/27 03:57:12;;;;;;;9.90;4.88;;;14.20;99.90;;;12.29;100.00;101189.63;5028754;28;20049;-87
2021/10/27 03:59:40;;;;;;;12.50;5.00;;;14.20;99.90;;;12.30;100.00;101190.50;5031922;28;20037;-85
2021/10/27 04:02:07;;;;;;;11.35;4.18;;;14.20;99.90;;;12.28;100.00;101193.41;5028371;28;20103;-87
2021/10/27 04:04:34;;;;;;;13.55;4.82;;;14.20;99.90;;;12.27;100.00;101197.16;5027076;28;20395;-87
2021/10/27 04:07:02;;;;;;;9.35;4.68;;;14.20;99.90;;;12.29;100.00;101199.69;5028229;28;20124;-86
2021/10/27 04:09:29;;;;;;;10.73;4.60;;;14.20;99.90;;;12.26;100.00;101195.47;5043455;28;20049;-86
2021/10/27 04:11:57;;;;;;;11.90;4.30;;;14.10;99.90;;;12.28;100.00;101195.25;5028400;28;20607;-86
2021/10/27 04:14:26;;;;;;;10.30;4.50;;;14.20;99.90;;;12.29;100.00;101199.69;5028407;28;20041;-87
2021/10/27 04:16:56;;;;;;;12.23;4.43;;;14.20;99.90;;;12.30;100.00;101193.22;5031514;28;20099;-86
2021/10/27 04:19:23;;;;;;;10.32;5.15;;;14.20;99.90;;;12.31;100.00;101189.47;5027957;28;20095;-87
2021/10/27 04:21:51;;;;;;;8.88;4.15;;;14.20;99.90;;;12.29;100.00;101200.53;5028732;28;20145;-87
2021/10/27 04:24:19;;;;;;;10.88;4.78;;;14.20;99.90;;;12.32;100.00;101204.81;5028141;28;20056;-87
2021/10/27 04:26:46;;;;;;;12.50;4.78;;;14.20;99.90;;;12.31;100.00;101203.09;5028464;28;20578;-87
2021/10/27 04:29:15;;;;;;;13.85;4.65;;;14.20;99.90;;;12.34;100.00;101205.47;5026860;28;20152;-87
2021/10/27 04:31:44;;;;;;;12.25;4.78;;;14.20;99.90;;;12.33;100.00;101203.78;5028531;28;20506;-87
2021/10/27 04:34:11;;;;;;;10.90;4.25;;;14.20;99.90;;;12.35;100.00;101201.72;5036573;28;20052;-86
2021/10/27 04:36:38;;;;;;;12.73;4.97;;;14.20;99.90;;;12.36;100.00;101197.97;5047946;28;20052;-86
2021/10/27 04:39:06;;;;;;;12.68;4.32;;;14.20;99.90;;;12.37;100.00;101201.53;5047220;28;20128;-87
2021/10/27 04:41:34;;;;;;;7.90;4.85;;;14.20;99.90;;;12.37;100.00;101194.19;5035914;28;20068;-88
2021/10/27 04:44:01;;;;;;;12.65;4.13;;;14.20;99.90;;;12.37;100.00;101199.66;5027955;28;20116;-87
2021/10/27 04:46:28;;;;;;;12.85;4.15;;;14.10;99.90;;;12.33;100.00;101193.69;5026385;28;20484;-86
2021/10/27 04:48:57;;;;;;;8.88;4.57;;;14.20;99.90;;;12.35;100.00;101203.59;5026448;28;20050;-86
2021/10/27 04:51:24;;;;;;;8.43;4.22;;;14.20;99.90;;;12.32;100.00;101205.66;5025893;28;20041;-87
2021/10/27 04:53:51;;;;;;;9.70;4.18;;;14.20;99.90;;;12.31;100.00;101198.47;5032136;28;20045;-87
2021/10/27 04:56:19;;;;;;;13.73;4.50;;;14.20;99.90;;;12.33;100.00;101206.50;5031782;28;20049;-86
2021/10/27 04:58:46;;;;;;;14.00;4.50;;;14.20;99.90;;;12.32;100.00;101200.19;5031839;28;20533;-86
2021/10/27 05:01:14;;;;;;;10.63;4.30;;;14.20;99.90;;;12.35;100.00;101211.78;5031839;28;20132;-86
2021/10/27 05:03:41;;;;;;;9.55;4.07;;;14.20;99.90;;;12.32;100.00;101205.66;5031890;28;20137;-86
2021/10/27 05:06:10;;;;;;;9.15;4.07;;;14.20;99.90;;;12.35;100.00;101212.63;5031740;28;20611;-87
2021/10/27 05:08:37;;;;;;;8.77;4.60;;;14.20;99.90;;;12.35;100.00;101206.31;5026508;28;20527;-87
2021/10/27 05:11:04;;;;;;;10.27;4.57;;;14.20;99.90;;;12.32;100.00;101208.38;5030446;28;20057;-87
2021/10/27 05:13:32;;;;;;;12.98;4.72;;;14.20;99.90;;;12.30;100.00;101207.72;5036282;28;20061;-87
2021/10/27 05:15:59;;;;;;;12.57;4.82;;;14.20;99.90;;;12.30;100.00;101207.72;5030312;28;20124;-87
2021/10/27 05:18:27;;;;;;;11.07;4.72;;;14.20;99.90;;;12.31;100.00;101209.41;5028799;28;20145;-86
2021/10/27 05:20:54;;;;;;;11.77;5.00;;;14.20;99.90;;;12.32;100.00;101205.66;5014986;28;20054;-87
2021/10/27 05:23:23;;;;;;;9.85;4.82;;;14.20;99.90;;;12.34;100.00;101205.47;5029708;28;20516;-86
2021/10/27 05:25:51;;;;;;;12.43;4.60;;;14.20;99.90;;;12.35;100.00;101212.63;5028355;28;20044;-87
2021/10/27 05:28:18;;;;;;;8.32;4.65;;;14.20;99.90;;;12.33;100.00;101206.50;5030392;28;20069;-86
2021/10/27 05:30:46;;;;;;;10.25;4.50;;;14.20;99.90;;;12.31;100.00;101203.09;5029610;28;20077;-87
2021/10/27 05:33:14;;;;;;;8.63;4.10;;;14.20;99.90;;;12.34;100.00;101197.28;5029985;28;20561;-86
2021/10/27 05:35:41;;;;;;;11.98;5.00;;;14.20;99.90;;;12.34;100.00;101197.28;5026437;28;20045;-86
2021/10/27 05:38:09;;;;;;;10.27;4.63;;;14.10;99.90;;;12.37;100.00;101202.38;5028942;28;20045;-87
2021/10/27 05:40:37;;;;;;;13.50;4.47;;;14.20;99.90;;;12.33;100.00;101204.59;5057401;28;20060;-86
2021/10/27 05:43:10;;;;;;;16.33;4.65;;;14.20;99.90;;;12.36;100.00;101200.69;5065377;22;20160;-90
2021/10/27 05:45:37;;;;;;;8.85;4.53;;;14.10;99.90;;;12.37;100.00;101205.09;5008155;28;20145;-89
2021/10/27 05:48:06;;;;;;;10.25;4.13;;;14.20;99.90;;;12.39;100.00;101204.94;4993276;28;20058;-84
2021/10/27 05:50:37;;;;;;;9.40;4.50;;;14.10;99.90;;;12.37;100.00;101205.09;5010864;28;20049;-84
2021/10/27 05:55:51;;;;;;;11.68;4.53;;;14.20;99.90;;;12.41;100.00;101208.34;4989253;28;20514;-85
2021/10/27 05:58:19;;;;;;;10.18;4.47;;;14.20;99.90;;;12.42;100.00;101210.03;4988061;28;20533;-85
2021/10/27 06:00:47;;;;;;;8.75;3.58;;;14.20;99.90;;;12.42;100.00;101210.88;4990344;28;20046;-85
2021/10/27 06:03:15;;;;;;;10.43;3.95;;;14.20;99.90;;;12.41;100.00;101219.25;4989099;28;20069;-85
2021/10/27 06:05:42;;;;;;;9.20;3.95;;;14.20;99.90;;;12.42;100.00;101221.81;4991250;28;20068;-84
2021/10/27 06:08:09;;;;;;;11.00;3.90;;;14.20;99.90;;;12.40;100.00;101225.75;4973274;28;20573;-85
2021/10/27 06:10:37;;;;;;;15.02;4.47;;;14.20;99.90;;;12.40;100.00;101217.56;4991212;28;20050;-84
2021/10/27 06:13:07;;;;;;;10.32;4.30;;;14.20;99.90;;;12.43;100.00;101220.78;4989205;28;20125;-85
2021/10/27 06:15:35;;;;;;;7.88;3.80;;;14.20;99.90;;;12.45;100.00;101231.50;4991048;28;20052;-83
2021/10/27 06:18:03;;;;;;;8.32;3.42;;;14.20;99.90;;;12.44;100.00;101227.94;4990927;28;20465;-86
2021/10/27 06:20:32;;;;;;;11.32;4.43;;;14.20;99.90;;;12.46;100.00;101231.34;4990914;28;20054;-86
2021/10/27 06:23:00;;;;;;;9.23;3.63;;;14.20;99.90;;;12.42;100.00;101232.72;4984770;28;20057;-90
2021/10/27 06:25:28;;;;;;;11.45;3.38;;;14.20;99.90;;;12.44;100.00;101225.19;4973010;28;20062;-85
2021/10/27 06:28:01;;;;;;;11.23;3.72;;;14.20;99.90;;;12.45;100.00;101231.50;4985713;28;20058;-86
2021/10/27 06:30:42;;;;;;;10.65;3.83;;;14.20;99.90;;;12.44;100.00;101236.13;4971975;28;20043;-88
2021/10/27 06:33:20;;;;;;;10.00;4.13;;;14.30;99.90;;;12.43;100.00;101234.44;4971403;28;20042;-87
2021/10/27 06:35:54;;;;;;;6.45;3.45;;;14.30;99.90;;;12.46;100.00;101244.97;4971439;28;20289;-87
2021/10/27 06:38:31;;;;;;;11.93;4.13;;;14.30;99.90;;;12.47;100.00;101241.25;4975744;28;20054;-87
2021/10/27 06:46:36;;;;;;;10.25;4.00;;;14.30;99.90;;;12.50;100.00;101246.31;4985635;28;20042;-88
2021/10/27 06:49:04;;;;;;;10.05;3.78;;;14.30;99.90;;;12.55;100.00;101236.78;4990185;28;20061;-87
2021/10/27 06:51:31;;;;;;;9.98;3.30;;;14.30;99.90;;;12.57;100.00;101246.47;4990467;28;20418;-87
2021/10/27 06:53:59;;;;;;;16.05;4.45;;;14.30;99.90;;;12.57;100.00;101251.09;4989861;28;20042;-88
2021/10/27 06:56:27;;;;;;;9.18;3.78;;;14.30;99.90;;;12.58;100.00;101253.63;4989381;28;20051;-87
2021/10/27 06:58:57;;;;;;;11.25;3.85;;;14.30;99.90;;;12.57;100.00;101260.13;4985611;28;20466;-88
2021/10/27 07:01:28;;;;;;;7.65;3.25;;;14.30;99.90;;;12.58;100.00;101264.53;4986708;28;20058;-88
2021/10/27 07:04:31;;;;;;;8.48;3.47;;;14.30;99.90;;;12.59;100.00;101262.69;4964486;28;20058;-88
2021/10/27 07:15:21;;;;;;;10.70;3.35;;;14.40;99.90;;;12.70;100.00;101284.97;4981717;28;20526;-90
2021/10/27 07:17:55;;;;;;;6.82;3.33;;;14.40;99.90;;;12.69;100.00;101276.94;4989912;28;20298;-92
2021/10/27 07:20:27;;;;;;;7.60;3.03;;;14.40;99.90;;;12.71;100.00;101281.19;4973171;28;20058;-87
2021/10/27 07:25:37;;;;;;;9.75;3.20;;;14.40;99.90;;;12.81;100.00;101274.66;5018537;28;20053;-87
2021/10/27 07:28:25;;;;;;;8.02;3.08;;;14.40;99.90;;;12.82;100.00;101285.41;5009502;28;20060;-90
2021/10/27 07:30:53;;;;;;;14.13;4.15;;;14.50;99.90;;;12.84;100.00;101288.78;4991270;28;20205;-89
2021/10/27 07:33:21;;;;;;;11.60;4.00;;;14.50;99.90;;;12.85;100.00;101282.31;5000131;28;20076;-90
2021/10/27 07:35:53;;;;;;;9.18;3.55;;;14.50;99.90;;;12.85;100.00;101290.50;4991054;28;20068;-89
2021/10/27 07:41:07;;;;;;;8.73;3.38;;;14.50;99.90;;;12.88;100.00;101289.28;4991180;28;20144;-90
2021/10/27 07:43:45;;;;;;;7.55;3.63;;;14.50;99.90;;;12.84;100.00;101291.53;4991477;28;20046;-90
2021/10/27 07:46:12;;;;;;;8.60;3.53;;;14.50;99.90;;;12.82;100.00;101299.06;4990947;28;20053;-89
2021/10/27 07:53:00;;;;;;;10.50;3.78;;;14.50;99.90;;;12.82;100.00;101304.53;5000257;28;20104;-90
2021/10/27 07:55:29;;;;;;;10.50;4.00;;;14.60;99.90;;;12.82;100.00;101306.41;4991265;28;20104;-87
2021/10/27 07:57:58;;;;;;;9.95;3.60;;;14.50;99.90;;;12.84;100.00;101302.44;4990130;28;20123;-90
2021/10/27 08:00:51;;;;;;;7.28;3.53;;;14.50;99.90;;;12.86;100.00;101311.31;5003695;28;20046;-90
2021/10/27 08:03:19;;;;;;;9.35;3.55;;;14.50;99.90;;;12.84;100.00;101309.81;4993428;28;20105;-90
2021/10/27 08:05:47;;;;;;;8.73;4.03;;;14.50;99.90;;;12.84;100.00;101316.13;5005099;28;20507;-87
2021/10/27 08:08:22;;;;;;;12.80;3.95;;;14.50;99.90;;;12.85;100.00;101309.63;5001468;28;20048;-88
2021/10/27 08:10:50;;;;;;;9.95;3.63;;;14.50;99.90;;;12.86;100.00;101313.22;4986585;28;20141;-88
2021/10/27 08:13:19;;;;;;;7.97;3.60;;;14.50;99.90;;;12.87;100.00;101307.56;4981191;28;20069;-88
2021/10/27 08:15:46;;;;;;;9.57;3.80;;;14.50;99.90;;;12.92;100.00;101309.75;5004927;28;20045;-87
2021/10/27 08:18:16;;;;;;;7.45;3.38;;;14.50;99.90;;;12.95;100.00;101319.47;4989280;28;20133;-87
2021/10/27 08:20:45;;;;;;;8.88;3.60;;;14.50;99.90;;;12.93;100.00;101314.19;4988679;28;20050;-87
2021/10/27 08:23:14;;;;;;;10.63;3.78;;;14.60;99.90;;;12.98;100.00;101313.63;4982470;28;20042;-87
2021/10/27 08:25:44;;;;;;;16.80;4.72;;;14.50;99.90;;;12.99;100.00;101316.19;4991761;28;20045;-87
2021/10/27 08:28:15;;;;;;;8.38;3.65;;;14.50;99.90;;;13.00;100.00;101317.88;4987779;28;20057;-88
2021/10/27 08:30:47;;;;;;;;;;;14.60;99.90;;;13.04;100.00;101323.84;4973696;28;20050;-87
2021/10/27 08:33:23;;;;;;;12.27;4.43;;;14.60;99.90;;;13.04;100.00;101318.38;4975644;28;21542;-87
2021/10/27 08:35:50;;;;;;;10.15;4.30;;;14.60;99.90;;;13.04;100.00;101318.38;4976634;28;20046;-87
2021/10/27 08:38:18;;;;;;;11.65;4.20;;;14.60;99.90;;;13.06;100.00;101321.78;4980072;28;20054;-87
2021/10/27 08:40:47;;;;;;;11.93;3.97;;;14.60;99.90;;;13.06;100.00;101317.19;5009822;28;20100;-87
2021/10/27 08:43:15;;;;;;;10.43;3.58;;;14.60;99.90;;;13.08;100.00;101308.81;5002048;28;20058;-87
2021/10/27 08:45:44;;;;;;;8.57;4.05;;;14.60;99.90;;;13.08;100.00;101320.59;4991932;28;20053;-87
2021/10/27 08:48:16;;;;;;;14.77;3.60;;;14.60;99.90;;;13.13;100.00;101317.28;4987607;28;20045;-87
2021/10/27 08:50:45;;;;;;;11.48;4.03;;;14.70;99.90;;;13.15;100.00;101328.03;4972952;28;20057;-87
2021/10/27 08:53:15;;;;;;;11.15;4.32;;;14.60;99.80;;;13.15;100.00;101317.97;4991729;28;20046;-87
2021/10/27 08:55:48;;;;;;;;;;;14.70;99.90;;;13.16;100.00;101330.59;4994904;28;20056;-87
2021/10/27 08:58:22;;;;;;;8.32;3.97;;;14.70;99.90;;;13.17;100.00;101324.09;5002381;28;19925;-87
2021/10/27 09:00:58;;;;;;;9.32;3.78;;;14.70;99.70;;;13.21;100.00;101330.03;4983934;28;20136;-87
2021/10/27 09:03:37;;;;;;;11.70;3.88;;;14.70;99.90;;;13.23;100.00;101328.84;5008478;28;20054;-87
2021/10/27 09:06:22;;;;;;;8.45;3.67;;;14.70;99.80;;;13.22;100.00;101326.28;4999850;28;20073;-87
2021/10/27 09:34:48;;;;;;;9.10;4.47;;;14.80;99.00;;;13.30;100.00;101342.66;4977957;28;20042;-88
2021/10/27 09:40:42;;;;;;;9.63;4.68;;;14.80;98.90;;;13.32;100.00;101342.47;4988609;28;20049;-87
2021/10/27 09:46:40;;;;;;;10.13;4.43;;;14.80;98.50;;;13.28;100.00;101342.81;5004979;28;20402;-88
2021/10/27 10:05:56;;;;;;;8.90;4.60;;;14.90;98.70;;;13.69;100.00;101330.72;4990628;28;20046;-87
2021/10/27 10:08:24;;;;;;;11.45;4.65;;;14.90;98.90;;;13.76;100.00;101326.19;4990308;28;20046;-88
2021/10/27 10:10:53;;;;;;;9.95;4.40;;;15.00;98.60;;;13.80;100.00;101330.28;4990102;28;20545;-88
2021/10/27 10:13:22;;;;;;;9.82;4.50;;;15.00;98.40;;;13.86;100.00;101315.00;4995918;28;20038;-88
2021/10/27 10:15:51;;;;;;;12.57;5.32;;;15.00;98.30;;;13.90;99.55;101327.28;4990984;28;20053;-88
2021/10/27 10:18:23;;;;;;;10.07;4.57;;;15.10;98.10;;;13.98;99.05;101321.72;5008752;28;20045;-87
2021/10/27 10:20:52;;;;;;;10.60;4.95;;;15.10;98.20;;;14.07;99.03;101315.13;5008688;28;20034;-87
2021/10/27 10:23:25;;;;;;;11.07;5.00;;;15.20;97.80;;;14.13;98.97;101312.66;4987335;28;20503;-87
2021/10/27 10:25:56;;;;;;;10.13;5.15;;;15.20;98.10;;;14.17;98.34;101320.31;5007693;28;20039;-87
2021/10/27 10:28:26;;;;;;;13.95;4.82;;;15.20;97.60;;;14.22;98.00;101317.00;5007025;28;20038;-88
2021/10/27 10:30:57;;;;;;;11.18;4.70;;;15.30;97.50;;;14.31;97.95;101321.34;5008154;28;20053;-87
2021/10/27 10:33:42;;;;;;;9.68;5.03;;;15.30;97.50;;;14.30;97.85;101319.66;4990953;28;20061;-88
2021/10/27 10:36:13;;;;;;;12.70;5.13;;;15.40;97.50;;;14.28;97.88;101317.09;4990155;28;20855;-88
2021/10/27 10:41:52;;;;;;;11.93;4.95;;;15.40;97.50;;;14.43;97.49;101317.09;4968817;28;20046;-87
2021/10/27 10:44:57;;;;;;;9.93;4.70;;;15.50;97.20;;;14.43;97.03;101311.63;4971021;28;20042;-87
2021/10/27 11:25:03;;;;;;;7.03;4.03;;;15.80;95.60;;;14.36;97.29;101274.22;4988690;28;20053;-88
2021/10/27 11:39:31;;;;;;;9.77;4.25;;;15.90;95.00;;;14.43;96.74;101270.53;4988859;28;20057;-87
2021/10/27 11:42:10;;;;;;;7.78;4.03;;;16.00;95.10;;;14.45;96.94;101268.44;4989627;28;20633;-88
2021/10/27 11:44:44;;;;;;;7.88;3.42;;;16.00;95.10;;;14.48;96.70;101276.25;5024882;23;20199;-86
2021/10/27 11:47:12;;;;;;;8.80;3.30;;;16.00;94.50;;;14.52;96.95;101256.72;5028605;28;20041;-87
2021/10/27 11:49:42;;;;;;;10.95;3.85;;;16.00;94.80;;;14.57;97.07;101263.34;5026616;28;20502;-87
2021/10/27 11:52:11;;;;;;;9.85;3.30;;;16.00;95.10;;;14.57;96.48;101251.56;5028708;28;20128;-88
2021/10/27 11:54:40;;;;;;;10.45;4.78;;;16.10;95.10;;;14.58;96.20;101245.88;5027904;28;20512;-88
2021/10/27 11:57:12;;;;;;;6.25;3.13;;;16.10;94.70;;;14.60;96.40;101242.94;5028045;28;20095;-88
2021/10/27 11:59:46;;;;;;;10.32;3.22;;;16.10;94.70;;;14.63;96.36;101253.50;5028132;28;20132;-88
2021/10/27 12:02:15;;;;;;;6.30;2.70;;;16.10;94.80;;;14.62;96.10;101238.97;5028553;28;20041;-88
2021/10/27 12:04:42;;;;;;;7.03;2.90;;;16.20;94.50;;;14.63;95.60;101237.91;5026929;28;20591;-88
2021/10/27 12:07:15;;;;;;;7.05;2.80;;;16.20;94.20;;;14.66;95.73;101247.66;5008909;28;20510;-88
2021/10/27 12:10:00;;;;;;;8.43;2.83;;;16.20;94.30;;;14.69;94.80;101229.97;5008592;28;20138;-87
2021/10/27 12:15:39;;;;;;;10.68;2.97;;;16.20;93.50;;;14.66;95.12;101240.28;5021555;28;20132;-87
2021/10/27 12:18:09;;;;;;;9.07;2.40;;;16.20;93.80;;;14.66;95.08;101232.06;5028279;28;20041;-87
2021/10/27 12:20:40;;;;;;;6.47;2.40;;;16.20;93.70;;;14.70;94.80;101237.13;5027158;28;20413;-87
2021/10/27 12:23:16;;;;;;;9.80;2.63;;;16.20;93.60;;;14.70;94.87;101228.91;5028003;28;20875;-87
2021/10/27 12:25:44;;;;;;;7.20;2.58;;;16.20;93.60;;;14.73;94.66;101231.28;5026624;28;20040;-87